Auburn, New Jersey
Current Conditions -  °F | °C
As of 8:54 AM on Saturday 22 Nov 2014 (Local Time) from KPHL Reporting Station
Scattered Clouds Scattered Clouds  
Wind Chill: -5°   Ceiling: Unl
Heat Index: -1°   Visibility: 10mi
Dew Point: -8°   Wind: 8mph
Humidity: 59%   Direction: 220°SW
Pressure: 30.53"   Gusts: NA
Location:  39.757°N, 75.3338°W
Report Text: KPHL 221354Z 22007KT 10SM FEW100 FEW200 SCT260 M01/M08 A3053 RMK AO2 SLP337 T10061078 $
Loading
Personal Weather Stations






























Interactive Weather Map New forecast layout! Learn more

10-Day Weather Forecast

Advertisements
Track Severe Weather on mobile